| time (UTC) | temp C | wind direction | speed KPH | gust KPH | rain 1hr cm | rain 24hr cm | rain mn cm | humidity % | barometer mb |
| 20260506174550 | 17 | 132 | 1.6 | 22.5 | 0.00 | 0.00 | 0.00 | 83 | 1011.5 |
| 20260506173059 | 16 | 98 | 6.4 | 16.1 | 0.00 | 0.00 | 0.00 | 86 | 1010.8 |
| 20260506171558 | 15 | 77 | 4.8 | 16.1 | 0.00 | 0.00 | 0.00 | 87 | 1013.8 |
| 20260506170050 | 15 | 19 | 6.4 | 20.9 | 0.00 | 0.00 | 0.00 | 86 | 1014.4 |
| 20260506164545 | 15 | 303 | 9.7 | 22.5 | 0.00 | 0.00 | 0.00 | 85 | 1014.7 |
| 20260506163051 | 15 | 311 | 8.0 | 20.9 | 0.00 | 0.00 | 0.00 | 86 | 1014.6 |
| 20260506161555 | 16 | 290 | 9.7 | 22.5 | 0.00 | 0.00 | 0.00 | 86 | 1014.3 |
| 20260506160046 | 16 | 352 | 9.7 | 22.5 | 0.00 | 0.00 | 0.00 | 87 | 1013.7 |
| 20260506154549 | 16 | 325 | 11.3 | 30.6 | 0.00 | 0.00 | 0.00 | 86 | 1013.5 |
| 20260506153047 | 16 | 311 | 11.3 | 20.9 | 0.00 | 0.00 | 0.00 | 86 | 1012.5 |
| 20260506151547 | 17 | 311 | 6.4 | 20.9 | 0.00 | 0.00 | 0.00 | 86 | 1012.3 |
| 20260506150058 | 17 | 333 | 6.4 | 19.3 | 0.00 | 0.00 | 0.00 | 86 | 1012.4 |
| 20260506144552 | 18 | 326 | 9.7 | 22.5 | 0.00 | 0.00 | 0.00 | 85 | 1012.1 |
| 20260506143051 | 18 | 311 | 6.4 | 20.9 | 0.00 | 0.00 | 0.00 | 85 | 1012.1 |
| 20260506141549 | 20 | 341 | 9.7 | 22.5 | 0.00 | 0.00 | 0.00 | 81 | 1011.5 |
| 20260506140050 | 23 | 360 | 8.0 | 22.5 | 0.00 | 0.00 | 0.00 | 77 | 1011.2 |
| 20260506134610 | 25 | 0 | 1.6 | 4.8 | 0.00 | 0.00 | 0.00 | 89 | 1010.6 |
| 20260506133047 | 24 | 148 | 3.2 | 9.7 | 0.00 | 0.00 | 0.00 | 90 | 1010.5 |
| 20260506131607 | 23 | 157 | 1.6 | 9.7 | 0.00 | 0.00 | 0.00 | 93 | 1010.6 |
| 20260506130052 | 23 | 0 | 0.0 | 3.2 | 0.00 | 0.00 | 0.00 | 94 | 1010.5 |
| 20260506124551 | 22 | 0 | 0.0 | 3.2 | 0.00 | 0.00 | 0.00 | 93 | 1010.4 |
| 20260506123051 | 22 | 0 | 0.0 | 0.0 | 0.00 | 0.00 | 0.00 | 93 | 1010.2 |
| 20260506121548 | 22 | 0 | 0.0 | 0.0 | 0.00 | 0.00 | 0.00 | 93 | 1010.3 |
| 20260506120047 | 22 | 0 | 0.0 | 3.2 | 0.00 | 0.00 | 0.00 | 93 | 1010.3 |
| 20260506114553 | 22 | 209 | 0.0 | 3.2 | 0.00 | 0.00 | 0.00 | 92 | 1010.1 |
| 20260506113043 | 22 | 0 | 0.0 | 3.2 | 0.00 | 0.00 | 0.00 | 92 | 1009.9 |
| 20260506111608 | 22 | 192 | 0.0 | 3.2 | 0.00 | 0.00 | 0.00 | 92 | 1009.7 |
| 20260506110051 | 22 | 162 | 0.0 | 4.8 | 0.00 | 0.00 | 0.00 | 92 | 1009.5 |
| 20260506104545 | 22 | 151 | 0.0 | 3.2 | 0.00 | 0.00 | 0.00 | 91 | 1009.3 |
| 20260506103051 | 23 | 164 | 0.0 | 3.2 | 0.00 | 0.00 | 0.00 | 91 | 1009.2 |
| 20260506101553 | 23 | 164 | 1.6 | 6.4 | 0.00 | 0.00 | 0.00 | 90 | 1009.1 |
| 20260506100131 | 23 | 142 | 0.0 | 4.8 | 0.00 | 0.00 | 0.00 | 90 | 1009.0 |
| 20260506094547 | 23 | 182 | 1.6 | 8.0 | 0.00 | 0.00 | 0.00 | 89 | 1009.2 |
| 20260506093052 | 23 | 0 | 1.6 | 8.0 | 0.00 | 0.00 | 0.00 | 89 | 1009.0 |
| 20260506091548 | 23 | 140 | 1.6 | 9.7 | 0.00 | 0.00 | 0.00 | 89 | 1009.1 |
| 20260506090047 | 23 | 206 | 1.6 | 9.7 | 0.00 | 0.00 | 0.00 | 89 | 1009.1 |
| 20260506084549 | 23 | 194 | 3.2 | 11.3 | 0.00 | 0.00 | 0.00 | 89 | 1009.1 |
| 20260506083108 | 23 | 218 | 1.6 | 8.0 | 0.00 | 0.00 | 0.00 | 90 | 1009.0 |
| 20260506081549 | 23 | 109 | 1.6 | 11.3 | 0.00 | 0.00 | 0.00 | 90 | 1009.1 |
| 20260506073054 | 23 | 207 | 4.8 | 14.5 | 0.00 | 0.00 | 0.00 | 91 | 1009.0 |
| 20260506071556 | 22 | 147 | 3.2 | 16.1 | 0.00 | 0.00 | 0.00 | 91 | 1008.9 |
| 20260506061550 | 23 | 186 | 1.6 | 12.9 | 0.00 | 0.00 | 0.00 | 91 | 1008.8 |
| 20260506044546 | 23 | 145 | 3.2 | 11.3 | 0.00 | 0.00 | 0.00 | 88 | 1009.1 |
| 20260506043047 | 23 | 165 | 3.2 | 11.3 | 0.00 | 0.00 | 0.00 | 88 | 1009.1 |
| 20260506041557 | 23 | 190 | 3.2 | 9.7 | 0.00 | 0.00 | 0.00 | 87 | 1008.8 |
| 20260506040050 | 23 | 247 | 3.2 | 12.9 | 0.00 | 0.00 | 0.00 | 86 | 1008.7 |
| 20260506034600 | 23 | 163 | 4.8 | 11.3 | 0.00 | 0.00 | 0.00 | 86 | 1008.5 |
| 20260506033052 | 24 | 142 | 1.6 | 11.3 | 0.00 | 0.00 | 0.00 | 85 | 1008.3 |
| 20260506031554 | 24 | 163 | 3.2 | 17.7 | 0.00 | 0.00 | 0.00 | 85 | 1008.1 |
| 20260506030054 | 24 | 121 | 3.2 | 8.0 | 0.00 | 0.00 | 0.00 | 84 | 1008.0 |
| 20260506024607 | 25 | 0 | 3.2 | 11.3 | 0.00 | 0.00 | 0.00 | 84 | 1007.7 |
| 20260506023056 | 25 | 140 | 3.2 | 11.3 | 0.00 | 0.00 | 0.00 | 83 | 1007.5 |
| 20260506021553 | 25 | 177 | 1.6 | 17.7 | 0.00 | 0.00 | 0.00 | 82 | 1007.3 |
| 20260506020108 | 25 | 146 | 3.2 | 12.9 | 0.00 | 0.00 | 0.00 | 81 | 1007.2 |
| 20260506014557 | 26 | 118 | 6.4 | 17.7 | 0.00 | 0.00 | 0.00 | 80 | 1007.0 |
| 20260506013051 | 26 | 121 | 3.2 | 16.1 | 0.00 | 0.00 | 0.00 | 79 | 1007.1 |
| 20260506011610 | 26 | 132 | 3.2 | 17.7 | 0.00 | 0.00 | 0.00 | 78 | 1006.9 |
| 20260506010051 | 27 | 182 | 3.2 | 17.7 | 0.00 | 0.00 | 0.00 | 78 | 1006.7 |
| 20260506004601 | 27 | 229 | 3.2 | 17.7 | 0.00 | 0.00 | 0.00 | 77 | 1006.5 |
| 20260506003045 | 27 | 0 | 3.2 | 22.5 | 0.00 | 0.00 | 0.00 | 77 | 1006.3 |
| 20260506001548 | 27 | 167 | 4.8 | 14.5 | 0.00 | 0.00 | 0.00 | 76 | 1005.9 |
| 20260506000113 | 27 | 197 | 3.2 | 14.5 | 0.00 | 0.00 | 0.00 | 76 | 1005.9 |
| 20260505234553 | 28 | 173 | 3.2 | 12.9 | 0.00 | 0.00 | 0.00 | 74 | 1005.9 |
| 20260505233055 | 28 | 190 | 3.2 | 12.9 | 0.00 | 0.00 | 0.00 | 74 | 1005.9 |
| 20260505231601 | 28 | 170 | 1.6 | 16.1 | 0.00 | 0.00 | 0.00 | 73 | 1005.8 |
| 20260505224549 | 29 | 145 | 1.6 | 19.3 | 0.00 | 0.00 | 0.00 | 70 | 1005.9 |
| 20260505223048 | 29 | 165 | 4.8 | 24.1 | 0.00 | 0.00 | 0.00 | 68 | 1005.8 |
| 20260505221556 | 30 | 304 | 6.4 | 20.9 | 0.00 | 0.00 | 0.00 | 67 | 1005.7 |
| 20260505220049 | 30 | 253 | 6.4 | 22.5 | 0.00 | 0.00 | 0.00 | 66 | 1006.1 |
| 20260505214545 | 30 | 221 | 4.8 | 30.6 | 0.00 | 0.00 | 0.00 | 66 | 1006.2 |
| 20260505213055 | 30 | 175 | 9.7 | 29.0 | 0.00 | 0.00 | 0.00 | 64 | 1006.2 |
| 20260505211553 | 31 | 134 | 6.4 | 29.0 | 0.00 | 0.00 | 0.00 | 65 | 1006.3 |
| 20260505210058 | 30 | 166 | 8.0 | 27.4 | 0.00 | 0.00 | 0.00 | 66 | 1006.2 |
| 20260505204559 | 30 | 192 | 8.0 | 37.0 | 0.00 | 0.00 | 0.00 | 66 | 1006.4 |
| 20260505203100 | 30 | 173 | 8.0 | 38.6 | 0.00 | 0.00 | 0.00 | 67 | 1006.8 |
| 20260505201554 | 29 | 146 | 12.9 | 37.0 | 0.00 | 0.00 | 0.00 | 66 | 1007.1 |
| 20260505200054 | 28 | 191 | 6.4 | 20.9 | 0.00 | 0.00 | 0.00 | 72 | 1007.3 |
| 20260505194606 | 28 | 171 | 9.7 | 27.4 | 0.00 | 0.00 | 0.00 | 70 | 1007.4 |
| 20260505193050 | 28 | 205 | 11.3 | 27.4 | 0.00 | 0.00 | 0.00 | 70 | 1007.5 |
| 20260505191605 | 28 | 36 | 6.4 | 29.0 | 0.00 | 0.00 | 0.00 | 73 | 1007.6 |
| 20260505190048 | 28 | 207 | 9.7 | 30.6 | 0.00 | 0.00 | 0.00 | 72 | 1007.8 |
| 20260505184549 | 27 | 207 | 6.4 | 29.0 | 0.00 | 0.00 | 0.00 | 73 | 1008.1 |
| 20260505183054 | 27 | 194 | 11.3 | 27.4 | 0.00 | 0.00 | 0.00 | 76 | 1008.1 |
| 20260505181551 | 26 | 196 | 8.0 | 27.4 | 0.00 | 0.00 | 0.00 | 78 | 1008.3 |